sensor_id;sensor_type;location;lat;lon;timestamp;P1;P2;P0
48531;PMS5003;34927;37.302;-121.982;2023-01-29T00:00:16;0;0;
48531;PMS5003;34927;37.302;-121.982;2023-01-29T00:01:20;0;0;
48531;PMS5003;34927;37.302;-121.982;2023-01-29T00:02:25;2;2;
48531;PMS5003;34927;37.302;-121.982;2023-01-29T00:03:30;3;2;
48531;PMS5003;34927;37.302;-121.982;2023-01-29T00:04:36;3;2;
48531;PMS5003;34927;37.302;-121.982;2023-01-29T00:05:41;1;0;
48531;PMS5003;34927;37.302;-121.982;2023-01-29T00:06:46;1;1;
48531;PMS5003;34927;37.302;-121.982;2023-01-29T00:07:51;2;2;
48531;PMS5003;34927;37.302;-121.982;2023-01-29T00:08:56;4;1;
48531;PMS5003;34927;37.302;-121.982;2023-01-29T00:10:01;4;1;
48531;PMS5003;34927;37.302;-121.982;2023-01-29T00:11:06;5;2;
48531;PMS5003;34927;37.302;-121.982;2023-01-29T00:12:10;5;2;
48531;PMS5003;34927;37.302;-121.982;2023-01-29T00:13:16;5;3;
48531;PMS5003;34927;37.302;-121.982;2023-01-29T00:14:20;5;3;
48531;PMS5003;34927;37.302;-121.982;2023-01-29T00:15:26;6;3;
48531;PMS5003;34927;37.302;-121.982;2023-01-29T00:16:30;6;3;
48531;PMS5003;34927;37.302;-121.982;2023-01-29T00:17:36;6;3;
48531;PMS5003;34927;37.302;-121.982;2023-01-29T00:18:41;4;2;
48531;PMS5003;34927;37.302;-121.982;2023-01-29T00:19:46;4;3;
48531;PMS5003;34927;37.302;-121.982;2023-01-29T00:20:50;4;3;
48531;PMS5003;34927;37.302;-121.982;2023-01-29T00:21:56;3;3;
48531;PMS5003;34927;37.302;-121.982;2023-01-29T00:23:01;3;3;
48531;PMS5003;34927;37.302;-121.982;2023-01-29T00:24:05;3;3;
48531;PMS5003;34927;37.302;-121.982;2023-01-29T00:25:10;3;3;
48531;PMS5003;34927;37.302;-121.982;2023-01-29T00:26:16;3;3;
48531;PMS5003;34927;37.302;-121.982;2023-01-29T00:27:21;3;3;
48531;PMS5003;34927;37.302;-121.982;2023-01-29T00:28:26;4;4;
48531;PMS5003;34927;37.302;-121.982;2023-01-29T00:29:30;4;4;
48531;PMS5003;34927;37.302;-121.982;2023-01-29T00:30:36;3;3;
48531;PMS5003;34927;37.302;-121.982;2023-01-29T00:31:43;3;3;
48531;PMS5003;34927;37.302;-121.982;2023-01-29T00:32:45;3;3;
48531;PMS5003;34927;37.302;-121.982;2023-01-29T00:33:51;3;3;
48531;PMS5003;34927;37.302;-121.982;2023-01-29T00:34:56;3;3;
48531;PMS5003;34927;37.302;-121.982;2023-01-29T00:36:01;3;3;
48531;PMS5003;34927;37.302;-121.982;2023-01-29T00:37:06;3;3;
48531;PMS5003;34927;37.302;-121.982;2023-01-29T00:38:10;3;3;
48531;PMS5003;34927;37.302;-121.982;2023-01-29T00:39:16;3;3;
48531;PMS5003;34927;37.302;-121.982;2023-01-29T00:40:21;3;3;
48531;PMS5003;34927;37.302;-121.982;2023-01-29T00:41:26;2;2;
48531;PMS5003;34927;37.302;-121.982;2023-01-29T00:42:31;2;2;
48531;PMS5003;34927;37.302;-121.982;2023-01-29T00:43:36;3;3;
48531;PMS5003;34927;37.302;-121.982;2023-01-29T00:44:41;2;2;
48531;PMS5003;34927;37.302;-121.982;2023-01-29T00:45:46;2;2;
48531;PMS5003;34927;37.302;-121.982;2023-01-29T00:46:52;3;3;
48531;PMS5003;34927;37.302;-121.982;2023-01-29T00:47:55;3;3;
48531;PMS5003;34927;37.302;-121.982;2023-01-29T00:49:00;3;3;
48531;PMS5003;34927;37.302;-121.982;2023-01-29T00:50:07;3;3;
48531;PMS5003;34927;37.302;-121.982;2023-01-29T00:51:11;3;3;
48531;PMS5003;34927;37.302;-121.982;2023-01-29T00:52:15;3;3;
48531;PMS5003;34927;37.302;-121.982;2023-01-29T00:53:21;5;4;
48531;PMS5003;34927;37.302;-121.982;2023-01-29T00:54:26;5;4;
48531;PMS5003;34927;37.302;-121.982;2023-01-29T00:55:31;5;4;
48531;PMS5003;34927;37.302;-121.982;2023-01-29T00:56:36;6;4;
48531;PMS5003;34927;37.302;-121.982;2023-01-29T00:57:41;6;5;
48531;PMS5003;34927;37.302;-121.982;2023-01-29T00:58:46;6;5;
48531;PMS5003;34927;37.302;-121.982;2023-01-29T00:59:51;5;4;
48531;PMS5003;34927;37.302;-121.982;2023-01-29T01:00:56;1;1;
48531;PMS5003;34927;37.302;-121.982;2023-01-29T01:02:01;3;3;
48531;PMS5003;34927;37.302;-121.982;2023-01-29T01:03:06;3;3;
48531;PMS5003;34927;37.302;-121.982;2023-01-29T01:04:11;2;2;
48531;PMS5003;34927;37.302;-121.982;2023-01-29T01:05:16;3;3;
48531;PMS5003;34927;37.302;-121.982;2023-01-29T01:06:21;2;2;
48531;PMS5003;34927;37.302;-121.982;2023-01-29T01:07:26;3;3;
48531;PMS5003;34927;37.302;-121.982;2023-01-29T01:08:31;3;3;
48531;PMS5003;34927;37.302;-121.982;2023-01-29T01:09:36;3;3;
48531;PMS5003;34927;37.302;-121.982;2023-01-29T01:10:41;3;3;
48531;PMS5003;34927;37.302;-121.982;2023-01-29T01:11:46;3;3;
48531;PMS5003;34927;37.302;-121.982;2023-01-29T01:12:53;3;3;
48531;PMS5003;34927;37.302;-121.982;2023-01-29T01:14:01;2;2;
48531;PMS5003;34927;37.302;-121.982;2023-01-29T01:15:06;2;2;
48531;PMS5003;34927;37.302;-121.982;2023-01-29T01:16:12;2;2;
48531;PMS5003;34927;37.302;-121.982;2023-01-29T01:17:16;3;3;
48531;PMS5003;34927;37.302;-121.982;2023-01-29T01:18:21;3;3;
48531;PMS5003;34927;37.302;-121.982;2023-01-29T01:19:25;3;3;
48531;PMS5003;34927;37.302;-121.982;2023-01-29T01:20:32;3;3;
48531;PMS5003;34927;37.302;-121.982;2023-01-29T01:21:35;3;3;
48531;PMS5003;34927;37.302;-121.982;2023-01-29T01:22:40;3;3;
48531;PMS5003;34927;37.302;-121.982;2023-01-29T01:23:46;3;3;
48531;PMS5003;34927;37.302;-121.982;2023-01-29T01:24:51;3;3;
48531;PMS5003;34927;37.302;-121.982;2023-01-29T01:25:56;3;3;
48531;PMS5003;34927;37.302;-121.982;2023-01-29T01:27:00;3;3;
48531;PMS5003;34927;37.302;-121.982;2023-01-29T01:28:07;3;3;
48531;PMS5003;34927;37.302;-121.982;2023-01-29T01:29:11;3;3;
48531;PMS5003;34927;37.302;-121.982;2023-01-29T01:30:16;3;3;
48531;PMS5003;34927;37.302;-121.982;2023-01-29T01:31:20;2;2;
48531;PMS5003;34927;37.302;-121.982;2023-01-29T01:32:26;2;2;
48531;PMS5003;34927;37.302;-121.982;2023-01-29T01:33:30;2;2;
48531;PMS5003;34927;37.302;-121.982;2023-01-29T01:34:36;2;2;
48531;PMS5003;34927;37.302;-121.982;2023-01-29T01:35:41;2;2;
48531;PMS5003;34927;37.302;-121.982;2023-01-29T01:36:45;2;2;
48531;PMS5003;34927;37.302;-121.982;2023-01-29T01:37:50;2;2;
48531;PMS5003;34927;37.302;-121.982;2023-01-29T01:38:56;2;2;
48531;PMS5003;34927;37.302;-121.982;2023-01-29T01:40:00;2;2;
48531;PMS5003;34927;37.302;-121.982;2023-01-29T01:41:06;2;2;
48531;PMS5003;34927;37.302;-121.982;2023-01-29T01:42:11;2;2;
48531;PMS5003;34927;37.302;-121.982;2023-01-29T01:43:16;3;3;
48531;PMS5003;34927;37.302;-121.982;2023-01-29T01:45:36;3;3;
48531;PMS5003;34927;37.302;-121.982;2023-01-29T01:46:41;3;3;
48531;PMS5003;34927;37.302;-121.982;2023-01-29T01:47:46;3;3;
48531;PMS5003;34927;37.302;-121.982;2023-01-29T01:48:56;3;3;
48531;PMS5003;34927;37.302;-121.982;2023-01-29T01:50:07;3;3;
48531;PMS5003;34927;37.302;-121.982;2023-01-29T01:51:15;3;3;
48531;PMS5003;34927;37.302;-121.982;2023-01-29T01:52:21;3;3;
48531;PMS5003;34927;37.302;-121.982;2023-01-29T01:53:27;3;3;
48531;PMS5003;34927;37.302;-121.982;2023-01-29T01:54:36;3;3;
48531;PMS5003;34927;37.302;-121.982;2023-01-29T01:55:42;3;3;
48531;PMS5003;34927;37.302;-121.982;2023-01-29T01:56:52;3;3;
48531;PMS5003;34927;37.302;-121.982;2023-01-29T01:58:03;3;3;
48531;PMS5003;34927;37.302;-121.982;2023-01-29T01:59:11;3;3;
48531;PMS5003;34927;37.302;-121.982;2023-01-29T02:00:21;2;2;
48531;PMS5003;34927;37.302;-121.982;2023-01-29T02:01:31;3;3;
48531;PMS5003;34927;37.302;-121.982;2023-01-29T02:02:36;2;2;
48531;PMS5003;34927;37.302;-121.982;2023-01-29T02:03:53;2;2;
48531;PMS5003;34927;37.302;-121.982;2023-01-29T02:05:11;2;2;
48531;PMS5003;34927;37.302;-121.982;2023-01-29T02:06:16;1;1;
48531;PMS5003;34927;37.302;-121.982;2023-01-29T02:07:21;0;0;
48531;PMS5003;34927;37.302;-121.982;2023-01-29T02:08:27;2;2;
48531;PMS5003;34927;37.302;-121.982;2023-01-29T02:09:38;2;2;
48531;PMS5003;34927;37.302;-121.982;2023-01-29T02:10:46;2;2;
48531;PMS5003;34927;37.302;-121.982;2023-01-29T02:11:52;2;2;
48531;PMS5003;34927;37.302;-121.982;2023-01-29T02:12:56;2;2;
48531;PMS5003;34927;37.302;-121.982;2023-01-29T02:14:00;3;3;
48531;PMS5003;34927;37.302;-121.982;2023-01-29T02:15:06;3;3;
48531;PMS5003;34927;37.302;-121.982;2023-01-29T02:16:11;3;3;
48531;PMS5003;34927;37.302;-121.982;2023-01-29T02:17:16;3;3;
48531;PMS5003;34927;37.302;-121.982;2023-01-29T02:18:20;3;3;
48531;PMS5003;34927;37.302;-121.982;2023-01-29T02:19:31;4;3;
48531;PMS5003;34927;37.302;-121.982;2023-01-29T02:20:48;4;3;
48531;PMS5003;34927;37.302;-121.982;2023-01-29T02:22:10;4;3;
48531;PMS5003;34927;37.302;-121.982;2023-01-29T02:24:46;4;3;
48531;PMS5003;34927;37.302;-121.982;2023-01-29T02:26:09;4;3;
48531;PMS5003;34927;37.302;-121.982;2023-01-29T02:27:32;4;3;
48531;PMS5003;34927;37.302;-121.982;2023-01-29T02:28:46;4;3;
48531;PMS5003;34927;37.302;-121.982;2023-01-29T02:29:58;4;3;
48531;PMS5003;34927;37.302;-121.982;2023-01-29T02:31:07;5;4;
48531;PMS5003;34927;37.302;-121.982;2023-01-29T02:32:33;5;4;
48531;PMS5003;34927;37.302;-121.982;2023-01-29T02:33:58;5;4;
48531;PMS5003;34927;37.302;-121.982;2023-01-29T02:40:34;4;4;
48531;PMS5003;34927;37.302;-121.982;2023-01-29T02:41:48;4;4;
48531;PMS5003;34927;37.302;-121.982;2023-01-29T02:43:03;4;4;
48531;PMS5003;34927;37.302;-121.982;2023-01-29T02:44:13;4;4;
48531;PMS5003;34927;37.302;-121.982;2023-01-29T02:45:27;4;4;
48531;PMS5003;34927;37.302;-121.982;2023-01-29T02:46:43;4;4;
48531;PMS5003;34927;37.302;-121.982;2023-01-29T02:47:57;3;3;
48531;PMS5003;34927;37.302;-121.982;2023-01-29T02:49:03;3;3;
48531;PMS5003;34927;37.302;-121.982;2023-01-29T02:50:16;2;2;
48531;PMS5003;34927;37.302;-121.982;2023-01-29T02:51:22;2;2;
48531;PMS5003;34927;37.302;-121.982;2023-01-29T02:52:32;2;2;
48531;PMS5003;34927;37.302;-121.982;2023-01-29T02:53:43;3;3;
48531;PMS5003;34927;37.302;-121.982;2023-01-29T02:54:57;2;2;
48531;PMS5003;34927;37.302;-121.982;2023-01-29T02:56:08;2;2;
48531;PMS5003;34927;37.302;-121.982;2023-01-29T02:57:16;3;3;
48531;PMS5003;34927;37.302;-121.982;2023-01-29T02:58:28;4;3;
48531;PMS5003;34927;37.302;-121.982;2023-01-29T02:59:37;4;3;
48531;PMS5003;34927;37.302;-121.982;2023-01-29T03:00:46;2;2;
48531;PMS5003;34927;37.302;-121.982;2023-01-29T03:01:57;7;7;
48531;PMS5003;34927;37.302;-121.982;2023-01-29T03:03:06;6;6;
48531;PMS5003;34927;37.302;-121.982;2023-01-29T03:04:17;5;5;
48531;PMS5003;34927;37.302;-121.982;2023-01-29T03:05:26;4;4;
48531;PMS5003;34927;37.302;-121.982;2023-01-29T03:06:37;3;2;
48531;PMS5003;34927;37.302;-121.982;2023-01-29T03:07:49;4;3;
48531;PMS5003;34927;37.302;-121.982;2023-01-29T03:08:56;4;2;
48531;PMS5003;34927;37.302;-121.982;2023-01-29T03:10:01;5;4;
48531;PMS5003;34927;37.302;-121.982;2023-01-29T03:11:11;5;4;
48531;PMS5003;34927;37.302;-121.982;2023-01-29T03:12:16;5;4;
48531;PMS5003;34927;37.302;-121.982;2023-01-29T03:13:28;4;4;
48531;PMS5003;34927;37.302;-121.982;2023-01-29T03:14:36;4;4;
48531;PMS5003;34927;37.302;-121.982;2023-01-29T03:15:46;4;4;
48531;PMS5003;34927;37.302;-121.982;2023-01-29T03:16:56;4;4;
48531;PMS5003;34927;37.302;-121.982;2023-01-29T03:18:02;4;4;
48531;PMS5003;34927;37.302;-121.982;2023-01-29T03:19:12;4;4;
48531;PMS5003;34927;37.302;-121.982;2023-01-29T03:20:22;4;4;
48531;PMS5003;34927;37.302;-121.982;2023-01-29T03:21:31;4;4;
48531;PMS5003;34927;37.302;-121.982;2023-01-29T03:22:42;4;4;
48531;PMS5003;34927;37.302;-121.982;2023-01-29T03:23:56;3;3;
48531;PMS5003;34927;37.302;-121.982;2023-01-29T03:25:00;3;3;
48531;PMS5003;34927;37.302;-121.982;2023-01-29T03:26:06;3;3;
48531;PMS5003;34927;37.302;-121.982;2023-01-29T03:27:11;3;3;
48531;PMS5003;34927;37.302;-121.982;2023-01-29T03:28:21;3;3;
48531;PMS5003;34927;37.302;-121.982;2023-01-29T03:29:31;3;3;
48531;PMS5003;34927;37.302;-121.982;2023-01-29T03:30:37;4;4;
48531;PMS5003;34927;37.302;-121.982;2023-01-29T03:31:46;4;4;
48531;PMS5003;34927;37.302;-121.982;2023-01-29T03:32:51;4;4;
48531;PMS5003;34927;37.302;-121.982;2023-01-29T03:33:58;4;4;
48531;PMS5003;34927;37.302;-121.982;2023-01-29T03:35:06;3;3;
48531;PMS5003;34927;37.302;-121.982;2023-01-29T03:36:12;3;3;
48531;PMS5003;34927;37.302;-121.982;2023-01-29T03:37:23;4;4;
48531;PMS5003;34927;37.302;-121.982;2023-01-29T03:38:31;3;3;
48531;PMS5003;34927;37.302;-121.982;2023-01-29T03:39:36;3;3;
48531;PMS5003;34927;37.302;-121.982;2023-01-29T03:40:42;3;3;
48531;PMS5003;34927;37.302;-121.982;2023-01-29T03:41:52;3;3;
48531;PMS5003;34927;37.302;-121.982;2023-01-29T03:43:08;4;4;
48531;PMS5003;34927;37.302;-121.982;2023-01-29T03:44:23;4;4;
48531;PMS5003;34927;37.302;-121.982;2023-01-29T03:45:33;3;3;
48531;PMS5003;34927;37.302;-121.982;2023-01-29T03:46:43;3;3;
48531;PMS5003;34927;37.302;-121.982;2023-01-29T03:47:57;3;3;
48531;PMS5003;34927;37.302;-121.982;2023-01-29T03:49:13;3;3;
48531;PMS5003;34927;37.302;-121.982;2023-01-29T03:50:30;3;3;
48531;PMS5003;34927;37.302;-121.982;2023-01-29T03:51:42;3;3;
48531;PMS5003;34927;37.302;-121.982;2023-01-29T03:52:58;3;3;
48531;PMS5003;34927;37.302;-121.982;2023-01-29T03:54:08;3;3;
48531;PMS5003;34927;37.302;-121.982;2023-01-29T03:55:16;3;3;
48531;PMS5003;34927;37.302;-121.982;2023-01-29T03:56:30;3;3;
48531;PMS5003;34927;37.302;-121.982;2023-01-29T03:57:41;4;4;
48531;PMS5003;34927;37.302;-121.982;2023-01-29T03:58:52;4;4;
48531;PMS5003;34927;37.302;-121.982;2023-01-29T04:00:03;4;4;
48531;PMS5003;34927;37.302;-121.982;2023-01-29T04:01:17;1;1;
48531;PMS5003;34927;37.302;-121.982;2023-01-29T04:02:28;2;2;
48531;PMS5003;34927;37.302;-121.982;2023-01-29T04:03:36;1;1;
48531;PMS5003;34927;37.302;-121.982;2023-01-29T04:04:46;1;1;
48531;PMS5003;34927;37.302;-121.982;2023-01-29T04:05:56;0;0;
48531;PMS5003;34927;37.302;-121.982;2023-01-29T04:07:07;0;0;
48531;PMS5003;34927;37.302;-121.982;2023-01-29T04:08:20;2;1;
48531;PMS5003;34927;37.302;-121.982;2023-01-29T04:09:33;4;1;
48531;PMS5003;34927;37.302;-121.982;2023-01-29T04:10:47;4;1;
48531;PMS5003;34927;37.302;-121.982;2023-01-29T04:12:08;4;1;
48531;PMS5003;34927;37.302;-121.982;2023-01-29T04:13:16;4;1;
48531;PMS5003;34927;37.302;-121.982;2023-01-29T04:14:27;4;1;
48531;PMS5003;34927;37.302;-121.982;2023-01-29T04:15:39;4;1;
48531;PMS5003;34927;37.302;-121.982;2023-01-29T04:16:51;3;1;
48531;PMS5003;34927;37.302;-121.982;2023-01-29T04:18:06;3;1;
48531;PMS5003;34927;37.302;-121.982;2023-01-29T04:19:10;3;1;
48531;PMS5003;34927;37.302;-121.982;2023-01-29T04:20:17;1;1;
48531;PMS5003;34927;37.302;-121.982;2023-01-29T04:21:21;1;1;
48531;PMS5003;34927;37.302;-121.982;2023-01-29T04:22:27;1;1;
48531;PMS5003;34927;37.302;-121.982;2023-01-29T04:23:36;1;1;
48531;PMS5003;34927;37.302;-121.982;2023-01-29T04:24:41;1;1;
48531;PMS5003;34927;37.302;-121.982;2023-01-29T04:25:46;1;1;
48531;PMS5003;34927;37.302;-121.982;2023-01-29T04:27:05;1;1;
48531;PMS5003;34927;37.302;-121.982;2023-01-29T04:28:21;1;1;
48531;PMS5003;34927;37.302;-121.982;2023-01-29T04:29:34;1;1;
48531;PMS5003;34927;37.302;-121.982;2023-01-29T04:30:47;2;2;
48531;PMS5003;34927;37.302;-121.982;2023-01-29T04:32:09;2;2;
48531;PMS5003;34927;37.302;-121.982;2023-01-29T04:33:15;2;2;
48531;PMS5003;34927;37.302;-121.982;2023-01-29T04:34:27;2;2;
48531;PMS5003;34927;37.302;-121.982;2023-01-29T04:35:38;2;2;
48531;PMS5003;34927;37.302;-121.982;2023-01-29T04:37:01;2;2;
48531;PMS5003;34927;37.302;-121.982;2023-01-29T04:38:18;2;2;
48531;PMS5003;34927;37.302;-121.982;2023-01-29T04:39:33;3;3;
48531;PMS5003;34927;37.302;-121.982;2023-01-29T04:40:48;3;3;
48531;PMS5003;34927;37.302;-121.982;2023-01-29T04:42:04;3;3;
48531;PMS5003;34927;37.302;-121.982;2023-01-29T04:43:18;3;3;
48531;PMS5003;34927;37.302;-121.982;2023-01-29T04:44:32;3;3;
48531;PMS5003;34927;37.302;-121.982;2023-01-29T04:45:43;3;3;
48531;PMS5003;34927;37.302;-121.982;2023-01-29T04:46:59;4;4;
48531;PMS5003;34927;37.302;-121.982;2023-01-29T04:48:12;2;2;
48531;PMS5003;34927;37.302;-121.982;2023-01-29T04:49:28;2;2;
48531;PMS5003;34927;37.302;-121.982;2023-01-29T04:50:36;2;2;
48531;PMS5003;34927;37.302;-121.982;2023-01-29T04:51:48;2;2;
48531;PMS5003;34927;37.302;-121.982;2023-01-29T04:53:02;3;3;
48531;PMS5003;34927;37.302;-121.982;2023-01-29T04:54:17;3;3;
48531;PMS5003;34927;37.302;-121.982;2023-01-29T04:55:32;3;3;
48531;PMS5003;34927;37.302;-121.982;2023-01-29T04:56:43;3;3;
48531;PMS5003;34927;37.302;-121.982;2023-01-29T04:57:58;3;3;
48531;PMS5003;34927;37.302;-121.982;2023-01-29T04:59:11;3;2;
48531;PMS5003;34927;37.302;-121.982;2023-01-29T05:00:22;3;1;
48531;PMS5003;34927;37.302;-121.982;2023-01-29T05:01:31;0;0;
48531;PMS5003;34927;37.302;-121.982;2023-01-29T05:02:36;1;1;
48531;PMS5003;34927;37.302;-121.982;2023-01-29T05:03:41;0;0;
48531;PMS5003;34927;37.302;-121.982;2023-01-29T05:04:51;0;0;
48531;PMS5003;34927;37.302;-121.982;2023-01-29T05:05:56;0;0;
48531;PMS5003;34927;37.302;-121.982;2023-01-29T05:07:02;0;0;
48531;PMS5003;34927;37.302;-121.982;2023-01-29T05:08:11;0;0;
48531;PMS5003;34927;37.302;-121.982;2023-01-29T05:09:21;0;0;
48531;PMS5003;34927;37.302;-121.982;2023-01-29T05:10:26;0;0;
48531;PMS5003;34927;37.302;-121.982;2023-01-29T05:11:31;1;1;
48531;PMS5003;34927;37.302;-121.982;2023-01-29T05:12:36;0;0;
48531;PMS5003;34927;37.302;-121.982;2023-01-29T05:13:41;1;1;
48531;PMS5003;34927;37.302;-121.982;2023-01-29T05:14:46;1;1;
48531;PMS5003;34927;37.302;-121.982;2023-01-29T05:15:52;1;1;
48531;PMS5003;34927;37.302;-121.982;2023-01-29T05:17:02;1;1;
48531;PMS5003;34927;37.302;-121.982;2023-01-29T05:18:10;1;1;
48531;PMS5003;34927;37.302;-121.982;2023-01-29T05:19:15;1;1;
48531;PMS5003;34927;37.302;-121.982;2023-01-29T05:20:20;1;1;
48531;PMS5003;34927;37.302;-121.982;2023-01-29T05:21:26;1;1;
48531;PMS5003;34927;37.302;-121.982;2023-01-29T05:22:30;1;1;
48531;PMS5003;34927;37.302;-121.982;2023-01-29T05:23:41;1;1;
48531;PMS5003;34927;37.302;-121.982;2023-01-29T05:24:46;1;1;
48531;PMS5003;34927;37.302;-121.982;2023-01-29T05:25:51;1;1;
48531;PMS5003;34927;37.302;-121.982;2023-01-29T05:26:56;1;1;
48531;PMS5003;34927;37.302;-121.982;2023-01-29T05:28:01;1;1;
48531;PMS5003;34927;37.302;-121.982;2023-01-29T05:29:06;1;1;
48531;PMS5003;34927;37.302;-121.982;2023-01-29T05:30:11;1;1;
48531;PMS5003;34927;37.302;-121.982;2023-01-29T05:31:16;1;1;
48531;PMS5003;34927;37.302;-121.982;2023-01-29T05:32:21;0;0;
48531;PMS5003;34927;37.302;-121.982;2023-01-29T05:33:27;0;0;
48531;PMS5003;34927;37.302;-121.982;2023-01-29T05:34:30;0;0;
48531;PMS5003;34927;37.302;-121.982;2023-01-29T05:35:36;0;0;
48531;PMS5003;34927;37.302;-121.982;2023-01-29T05:36:41;0;0;
48531;PMS5003;34927;37.302;-121.982;2023-01-29T05:37:45;0;0;
48531;PMS5003;34927;37.302;-121.982;2023-01-29T05:38:51;0;0;
48531;PMS5003;34927;37.302;-121.982;2023-01-29T05:39:55;0;0;
48531;PMS5003;34927;37.302;-121.982;2023-01-29T05:41:01;0;0;
48531;PMS5003;34927;37.302;-121.982;2023-01-29T05:42:06;0;0;
48531;PMS5003;34927;37.302;-121.982;2023-01-29T05:43:13;0;0;
48531;PMS5003;34927;37.302;-121.982;2023-01-29T05:44:21;0;0;
48531;PMS5003;34927;37.302;-121.982;2023-01-29T05:45:25;0;0;
48531;PMS5003;34927;37.302;-121.982;2023-01-29T05:46:30;0;0;
48531;PMS5003;34927;37.302;-121.982;2023-01-29T05:47:36;0;0;
48531;PMS5003;34927;37.302;-121.982;2023-01-29T05:48:41;1;1;
48531;PMS5003;34927;37.302;-121.982;2023-01-29T05:49:46;1;1;
48531;PMS5003;34927;37.302;-121.982;2023-01-29T05:50:51;1;1;
48531;PMS5003;34927;37.302;-121.982;2023-01-29T05:51:56;1;1;
48531;PMS5003;34927;37.302;-121.982;2023-01-29T05:53:01;1;1;
48531;PMS5003;34927;37.302;-121.982;2023-01-29T05:54:06;1;1;
48531;PMS5003;34927;37.302;-121.982;2023-01-29T05:55:10;3;1;
48531;PMS5003;34927;37.302;-121.982;2023-01-29T05:56:15;3;1;
48531;PMS5003;34927;37.302;-121.982;2023-01-29T05:57:21;3;1;
48531;PMS5003;34927;37.302;-121.982;2023-01-29T05:58:26;3;1;
48531;PMS5003;34927;37.302;-121.982;2023-01-29T05:59:31;3;1;
48531;PMS5003;34927;37.302;-121.982;2023-01-29T06:00:35;0;0;
48531;PMS5003;34927;37.302;-121.982;2023-01-29T06:01:41;0;0;
48531;PMS5003;34927;37.302;-121.982;2023-01-29T06:02:46;0;0;
48531;PMS5003;34927;37.302;-121.982;2023-01-29T06:03:50;0;0;
48531;PMS5003;34927;37.302;-121.982;2023-01-29T06:04:56;0;0;
48531;PMS5003;34927;37.302;-121.982;2023-01-29T06:06:01;0;0;
48531;PMS5003;34927;37.302;-121.982;2023-01-29T06:07:06;0;0;
48531;PMS5003;34927;37.302;-121.982;2023-01-29T06:08:11;0;0;
48531;PMS5003;34927;37.302;-121.982;2023-01-29T06:09:15;0;0;
48531;PMS5003;34927;37.302;-121.982;2023-01-29T06:10:21;0;0;
48531;PMS5003;34927;37.302;-121.982;2023-01-29T06:11:26;0;0;
48531;PMS5003;34927;37.302;-121.982;2023-01-29T06:12:31;0;0;
48531;PMS5003;34927;37.302;-121.982;2023-01-29T06:13:36;0;0;
48531;PMS5003;34927;37.302;-121.982;2023-01-29T06:14:41;0;0;
48531;PMS5003;34927;37.302;-121.982;2023-01-29T06:15:46;0;0;
48531;PMS5003;34927;37.302;-121.982;2023-01-29T06:16:51;0;0;
48531;PMS5003;34927;37.302;-121.982;2023-01-29T06:17:56;0;0;
48531;PMS5003;34927;37.302;-121.982;2023-01-29T06:19:01;0;0;
48531;PMS5003;34927;37.302;-121.982;2023-01-29T06:20:06;0;0;
48531;PMS5003;34927;37.302;-121.982;2023-01-29T06:21:11;0;0;
48531;PMS5003;34927;37.302;-121.982;2023-01-29T06:22:16;0;0;
48531;PMS5003;34927;37.302;-121.982;2023-01-29T06:23:21;1;0;
48531;PMS5003;34927;37.302;-121.982;2023-01-29T06:24:25;1;0;
48531;PMS5003;34927;37.302;-121.982;2023-01-29T06:25:31;1;0;
48531;PMS5003;34927;37.302;-121.982;2023-01-29T06:26:36;1;0;
48531;PMS5003;34927;37.302;-121.982;2023-01-29T06:27:41;1;0;
48531;PMS5003;34927;37.302;-121.982;2023-01-29T06:28:47;1;0;
48531;PMS5003;34927;37.302;-121.982;2023-01-29T06:29:51;1;0;
48531;PMS5003;34927;37.302;-121.982;2023-01-29T06:30:56;1;0;
48531;PMS5003;34927;37.302;-121.982;2023-01-29T06:32:01;1;0;
48531;PMS5003;34927;37.302;-121.982;2023-01-29T06:33:05;1;0;
48531;PMS5003;34927;37.302;-121.982;2023-01-29T06:34:11;1;0;
48531;PMS5003;34927;37.302;-121.982;2023-01-29T06:35:15;1;0;
48531;PMS5003;34927;37.302;-121.982;2023-01-29T06:36:21;1;0;
48531;PMS5003;34927;37.302;-121.982;2023-01-29T06:37:25;1;0;
48531;PMS5003;34927;37.302;-121.982;2023-01-29T06:38:31;1;0;
48531;PMS5003;34927;37.302;-121.982;2023-01-29T06:39:36;1;0;
48531;PMS5003;34927;37.302;-121.982;2023-01-29T06:40:41;0;0;
48531;PMS5003;34927;37.302;-121.982;2023-01-29T06:41:46;0;0;
48531;PMS5003;34927;37.302;-121.982;2023-01-29T06:42:50;0;0;
48531;PMS5003;34927;37.302;-121.982;2023-01-29T06:43:56;0;0;
48531;PMS5003;34927;37.302;-121.982;2023-01-29T06:45:01;0;0;
48531;PMS5003;34927;37.302;-121.982;2023-01-29T06:46:07;0;0;
48531;PMS5003;34927;37.302;-121.982;2023-01-29T06:47:11;0;0;
48531;PMS5003;34927;37.302;-121.982;2023-01-29T06:48:16;0;0;
48531;PMS5003;34927;37.302;-121.982;2023-01-29T06:49:31;0;0;
48531;PMS5003;34927;37.302;-121.982;2023-01-29T06:50:36;0;0;
48531;PMS5003;34927;37.302;-121.982;2023-01-29T06:51:40;0;0;
48531;PMS5003;34927;37.302;-121.982;2023-01-29T06:52:46;0;0;
48531;PMS5003;34927;37.302;-121.982;2023-01-29T06:53:51;0;0;
48531;PMS5003;34927;37.302;-121.982;2023-01-29T06:54:56;0;0;
48531;PMS5003;34927;37.302;-121.982;2023-01-29T06:56:01;0;0;
48531;PMS5003;34927;37.302;-121.982;2023-01-29T06:57:06;0;0;
48531;PMS5003;34927;37.302;-121.982;2023-01-29T06:58:11;1;1;
48531;PMS5003;34927;37.302;-121.982;2023-01-29T06:59:15;1;1;
48531;PMS5003;34927;37.302;-121.982;2023-01-29T07:00:21;1;1;
48531;PMS5003;34927;37.302;-121.982;2023-01-29T07:01:26;0;0;
48531;PMS5003;34927;37.302;-121.982;2023-01-29T07:02:31;1;1;
48531;PMS5003;34927;37.302;-121.982;2023-01-29T07:03:36;1;1;
48531;PMS5003;34927;37.302;-121.982;2023-01-29T07:04:40;3;1;
48531;PMS5003;34927;37.302;-121.982;2023-01-29T07:05:49;1;0;
48531;PMS5003;34927;37.302;-121.982;2023-01-29T07:06:56;1;0;
48531;PMS5003;34927;37.302;-121.982;2023-01-29T07:08:00;2;0;
48531;PMS5003;34927;37.302;-121.982;2023-01-29T07:09:05;1;0;
48531;PMS5003;34927;37.302;-121.982;2023-01-29T07:10:11;1;0;
48531;PMS5003;34927;37.302;-121.982;2023-01-29T07:11:15;1;0;
48531;PMS5003;34927;37.302;-121.982;2023-01-29T07:12:21;1;0;
48531;PMS5003;34927;37.302;-121.982;2023-01-29T07:13:26;1;0;
48531;PMS5003;34927;37.302;-121.982;2023-01-29T07:14:31;1;0;
48531;PMS5003;34927;37.302;-121.982;2023-01-29T07:15:36;1;0;
48531;PMS5003;34927;37.302;-121.982;2023-01-29T07:16:41;1;0;
48531;PMS5003;34927;37.302;-121.982;2023-01-29T07:17:54;1;0;
48531;PMS5003;34927;37.302;-121.982;2023-01-29T07:19:01;1;0;
48531;PMS5003;34927;37.302;-121.982;2023-01-29T07:20:06;1;0;
48531;PMS5003;34927;37.302;-121.982;2023-01-29T07:21:11;1;0;
48531;PMS5003;34927;37.302;-121.982;2023-01-29T07:22:16;0;0;
48531;PMS5003;34927;37.302;-121.982;2023-01-29T07:23:21;0;0;
48531;PMS5003;34927;37.302;-121.982;2023-01-29T07:24:26;0;0;
48531;PMS5003;34927;37.302;-121.982;2023-01-29T07:25:32;0;0;
48531;PMS5003;34927;37.302;-121.982;2023-01-29T07:26:36;0;0;
48531;PMS5003;34927;37.302;-121.982;2023-01-29T07:27:41;0;0;
48531;PMS5003;34927;37.302;-121.982;2023-01-29T07:28:46;0;0;